This is the latest recevied weather packets stored in our database for station/object BMCB-5. If no packets are shown the sender has not sent any weather packets the latest 10 day(s).
| Time | Temp. | Humidity | Pressure | Rain* | Wind** | Luminosity | Snow |
|---|---|---|---|---|---|---|---|
| 1777417263 | 12.22° C | 51% | 1023.9 hPa | 0 mm | - | 0 W/m² | - |
| 1777414863 | 12.78° C | 48% | 1023.7 hPa | 0 mm | - | 0 W/m² | - |
| 1777409467 | 14.44° C | 46% | 1023.3 hPa | 0 mm | - | 0 W/m² | - |
| 1777408270 | 15° C | 44% | 1023.3 hPa | 0 mm | - | 0 W/m² | - |
| 1777404061 | 16.11° C | 44% | 1022.3 hPa | 0 mm | - | 0 W/m² | - |
| 1777399860 | 17.78° C | 41% | 1021.5 hPa | 0 mm | - | 14 W/m² | - |
| 1777397463 | 18.89° C | 39% | 1021.1 hPa | 0 mm | - | 24 W/m² | - |
| 1777394458 | 19.44° C | 40% | 1021 hPa | 0 mm | - | 30 W/m² | - |
| 1777381258 | 19.44° C | 41% | 1021.8 hPa | 0 mm | - | 404 W/m² | - |
| 1777380660 | 19.44° C | 41% | 1021.8 hPa | 0 mm | - | 426 W/m² | - |
| 1777380061 | 20° C | 42% | 1021.8 hPa | 0 mm | - | 340 W/m² | - |
| 1777376460 | 17.78° C | 49% | 1022.2 hPa | 0 mm | - | 572 W/m² | - |
| 1777375260 | 17.22° C | 51% | 1022.6 hPa | 0 mm | - | 488 W/m² | - |
| 1777362056 | 10.56° C | 72% | 1023.2 hPa | 0 mm | - | 296 W/m² | - |
| 1777344656 | 9.44° C | 62% | 1022.9 hPa | 0 mm | - | 0 W/m² | - |
| 1777338659 | 10.56° C | 61% | 1023.2 hPa | 0 mm | - | 0 W/m² | - |
| 1777338056 | 10.56° C | 62% | 1023.3 hPa | 0 mm | - | 0 W/m² | - |
| 1777337458 | 10.56° C | 63% | 1023.4 hPa | 0 mm | - | 0 W/m² | - |
| 1777327867 | 11.67° C | 69% | 1023.3 hPa | 0 mm | - | 0 W/m² | - |
| 1777309261 | 18.33° C | 35% | 1023.1 hPa | 0 mm | - | 36 W/m² | - |
| 1777305663 | 19.44° C | 34% | 1023.4 hPa | 0 mm | - | 34 W/m² | - |
| 1777303861 | 18.89° C | 36% | 1023.5 hPa | 0 mm | - | 54 W/m² | - |
| 1777303262 | 18.89° C | 36% | 1023.7 hPa | 0 mm | - | 98 W/m² | - |
| 1777298471 | 18.89° C | 38% | 1024.6 hPa | 0 mm | - | 466 W/m² | - |
| 1777295461 | 17.78° C | 40% | 1025.1 hPa | 0 mm | - | 520 W/m² | - |
* Rain latest hour (hover to see other rain measurements)
** Current wind speed in m/s (hover to see current wind gust speed)